sensor_id;sensor_type;location;lat;lon;timestamp;pressure;altitude;pressure_sealevel;temperature;humidity
49585;BME280;35491;49.142;9.210;2023-01-27T00:37:33;100255.56;;;0.28;67.18
49585;BME280;35491;49.142;9.210;2023-01-27T00:38:37;100244.25;;;0.26;66.72
49585;BME280;35491;49.142;9.210;2023-01-27T00:39:40;100245.19;;;0.25;66.91
49585;BME280;35491;49.142;9.210;2023-01-27T00:40:44;100243.47;;;0.24;66.65
49585;BME280;35491;49.142;9.210;2023-01-27T00:42:05;100244.88;;;0.31;66.96
49585;BME280;35491;49.142;9.210;2023-01-27T00:43:08;100242.88;;;0.36;66.77
49585;BME280;35491;49.142;9.210;2023-01-27T00:44:09;100246.28;;;0.38;66.62
49585;BME280;35491;49.142;9.210;2023-01-27T00:46:18;100243.41;;;0.43;66.53
49585;BME280;35491;49.142;9.210;2023-01-27T00:47:19;100243.66;;;0.38;66.20
49585;BME280;35491;49.142;9.210;2023-01-27T00:48:22;100246.44;;;0.35;66.23
49585;BME280;35491;49.142;9.210;2023-01-27T00:49:24;100242.47;;;0.26;66.02
49585;BME280;35491;49.142;9.210;2023-01-27T00:50:27;100246.25;;;0.21;66.33
49585;BME280;35491;49.142;9.210;2023-01-27T00:51:28;100245.50;;;0.19;66.33
49585;BME280;35491;49.142;9.210;2023-01-27T00:52:35;100251.50;;;0.21;66.32
49585;BME280;35491;49.142;9.210;2023-01-27T00:53:39;100245.75;;;0.12;65.99
49585;BME280;35491;49.142;9.210;2023-01-27T00:54:40;100254.44;;;0.14;66.55
49585;BME280;35491;49.142;9.210;2023-01-27T00:55:44;100245.50;;;0.19;66.60
49585;BME280;35491;49.142;9.210;2023-01-27T00:56:46;100253.22;;;0.22;66.37
49585;BME280;35491;49.142;9.210;2023-01-27T00:57:50;100246.19;;;0.22;66.04
49585;BME280;35491;49.142;9.210;2023-01-27T00:58:52;100254.00;;;0.24;66.30
49585;BME280;35491;49.142;9.210;2023-01-27T00:59:56;100243.16;;;0.30;66.58
49585;BME280;35491;49.142;9.210;2023-01-27T01:00:58;100247.81;;;0.25;66.08
49585;BME280;35491;49.142;9.210;2023-01-27T01:02:03;100249.53;;;0.26;66.33
49585;BME280;35491;49.142;9.210;2023-01-27T01:03:04;100247.94;;;0.22;65.93
49585;BME280;35491;49.142;9.210;2023-01-27T01:04:08;100257.25;;;0.29;66.23
49585;BME280;35491;49.142;9.210;2023-01-27T01:05:11;100251.06;;;0.30;65.75
49585;BME280;35491;49.142;9.210;2023-01-27T01:06:13;100254.78;;;0.26;65.81
49585;BME280;35491;49.142;9.210;2023-01-27T01:07:18;100248.34;;;0.14;66.08
49585;BME280;35491;49.142;9.210;2023-01-27T01:08:22;100245.63;;;0.15;66.39
49585;BME280;35491;49.142;9.210;2023-01-27T01:09:26;100249.19;;;0.14;66.39
49585;BME280;35491;49.142;9.210;2023-01-27T01:10:27;100245.50;;;0.19;66.44
49585;BME280;35491;49.142;9.210;2023-01-27T01:11:31;100252.28;;;0.23;66.30
49585;BME280;35491;49.142;9.210;2023-01-27T01:12:32;100244.31;;;0.24;66.38
49585;BME280;35491;49.142;9.210;2023-01-27T01:14:36;100244.69;;;0.17;66.14
49585;BME280;35491;49.142;9.210;2023-01-27T01:16:43;100250.22;;;0.10;66.20
49585;BME280;35491;49.142;9.210;2023-01-27T01:18:50;100249.31;;;0.11;66.47
49585;BME280;35491;49.142;9.210;2023-01-27T01:19:54;100247.38;;;0.15;66.69
49585;BME280;35491;49.142;9.210;2023-01-27T01:20:55;100257.53;;;0.23;66.62
49585;BME280;35491;49.142;9.210;2023-01-27T01:21:58;100257.25;;;0.29;66.41
49585;BME280;35491;49.142;9.210;2023-01-27T01:25:13;100250.31;;;0.28;66.08
49585;BME280;35491;49.142;9.210;2023-01-27T01:27:22;100254.91;;;0.23;66.29
49585;BME280;35491;49.142;9.210;2023-01-27T01:28:26;100245.50;;;0.19;66.31
49585;BME280;35491;49.142;9.210;2023-01-27T01:29:27;100251.50;;;0.21;66.44
49585;BME280;35491;49.142;9.210;2023-01-27T01:30:32;100249.66;;;0.23;66.20
49585;BME280;35491;49.142;9.210;2023-01-27T01:31:35;100254.28;;;0.18;66.24
49585;BME280;35491;49.142;9.210;2023-01-27T01:32:39;100255.00;;;0.21;66.32
49585;BME280;35491;49.142;9.210;2023-01-27T01:33:40;100247.34;;;0.17;66.33
49585;BME280;35491;49.142;9.210;2023-01-27T01:34:44;100249.09;;;0.16;66.43
49585;BME280;35491;49.142;9.210;2023-01-27T01:35:45;100253.44;;;0.17;66.34
49585;BME280;35491;49.142;9.210;2023-01-27T01:36:48;100246.25;;;0.21;66.17
49585;BME280;35491;49.142;9.210;2023-01-27T01:37:49;100250.88;;;0.15;66.30
49585;BME280;35491;49.142;9.210;2023-01-27T01:38:53;100249.75;;;0.21;66.15
49585;BME280;35491;49.142;9.210;2023-01-27T01:39:55;100251.44;;;0.22;66.38
49585;BME280;35491;49.142;9.210;2023-01-27T01:41:01;100250.88;;;0.15;66.13
49585;BME280;35491;49.142;9.210;2023-01-27T01:42:02;100249.19;;;0.14;66.24
49585;BME280;35491;49.142;9.210;2023-01-27T01:43:10;100235.72;;;0.21;66.43
49585;BME280;35491;49.142;9.210;2023-01-27T01:44:20;100241.28;;;0.14;66.16
49585;BME280;35491;49.142;9.210;2023-01-27T01:45:39;100239.72;;;0.10;66.26
49585;BME280;35491;49.142;9.210;2023-01-27T01:46:43;100236.34;;;0.08;66.46
49585;BME280;35491;49.142;9.210;2023-01-27T01:47:47;100240.09;;;0.03;66.64
49585;BME280;35491;49.142;9.210;2023-01-27T01:48:48;100232.00;;;0.07;66.68
49585;BME280;35491;49.142;9.210;2023-01-27T01:49:54;100236.25;;;0.10;66.38
49585;BME280;35491;49.142;9.210;2023-01-27T01:57:38;100236.38;;;0.07;66.41
49585;BME280;35491;49.142;9.210;2023-01-27T01:58:42;100234.75;;;0.04;66.38
49585;BME280;35491;49.142;9.210;2023-01-27T01:59:45;100230.19;;;0.08;66.30
49585;BME280;35491;49.142;9.210;2023-01-27T02:00:49;100238.88;;;0.10;66.44
49585;BME280;35491;49.142;9.210;2023-01-27T02:01:51;100238.03;;;0.09;66.39
49585;BME280;35491;49.142;9.210;2023-01-27T02:11:14;100234.97;;;-0.01;66.68
49585;BME280;35491;49.142;9.210;2023-01-27T02:12:41;100234.69;;;0.06;66.64
49585;BME280;35491;49.142;9.210;2023-01-27T02:14:48;100238.66;;;0.14;66.34
49585;BME280;35491;49.142;9.210;2023-01-27T02:18:04;100227.00;;;0.01;66.91
49585;BME280;35491;49.142;9.210;2023-01-27T02:22:21;100231.56;;;-0.03;67.05
49585;BME280;35491;49.142;9.210;2023-01-27T02:23:35;100228.09;;;-0.03;67.30
49585;BME280;35491;49.142;9.210;2023-01-27T02:44:14;100224.16;;;0.06;67.64
49585;BME280;35491;49.142;9.210;2023-01-27T02:45:17;100219.63;;;0.09;67.65
49585;BME280;35491;49.142;9.210;2023-01-27T02:46:18;100221.63;;;0.04;67.50
49585;BME280;35491;49.142;9.210;2023-01-27T02:47:22;100216.44;;;0.03;67.66
49585;BME280;35491;49.142;9.210;2023-01-27T02:48:24;100228.72;;;0.02;67.62
49585;BME280;35491;49.142;9.210;2023-01-27T02:49:27;100223.53;;;0.01;67.69
49585;BME280;35491;49.142;9.210;2023-01-27T02:51:31;100218.28;;;0.01;67.82
49585;BME280;35491;49.142;9.210;2023-01-27T02:52:35;100226.88;;;0.04;67.65
49585;BME280;35491;49.142;9.210;2023-01-27T02:53:36;100227.88;;;0.02;67.69
49585;BME280;35491;49.142;9.210;2023-01-27T02:54:40;100227.75;;;0.05;67.68
49585;BME280;35491;49.142;9.210;2023-01-27T02:55:41;100222.53;;;0.03;67.68
49585;BME280;35491;49.142;9.210;2023-01-27T02:56:45;100214.81;;;0.00;67.78
49585;BME280;35491;49.142;9.210;2023-01-27T02:57:46;100222.47;;;0.05;67.94
49585;BME280;35491;49.142;9.210;2023-01-27T02:58:50;100223.63;;;-0.01;67.70
49585;BME280;35491;49.142;9.210;2023-01-27T02:59:54;100216.44;;;0.03;67.91
49585;BME280;35491;49.142;9.210;2023-01-27T03:00:58;100222.06;;;-0.05;68.11
49585;BME280;35491;49.142;9.210;2023-01-27T03:02:00;100218.59;;;-0.06;68.15
49585;BME280;35491;49.142;9.210;2023-01-27T03:03:03;100226.09;;;0.02;68.07
49585;BME280;35491;49.142;9.210;2023-01-27T03:04:05;100219.13;;;0.01;68.03
49585;BME280;35491;49.142;9.210;2023-01-27T03:05:11;100219.28;;;-0.02;67.94
49585;BME280;35491;49.142;9.210;2023-01-27T03:06:13;100217.72;;;-0.06;67.92
49585;BME280;35491;49.142;9.210;2023-01-27T03:07:18;100217.81;;;-0.08;68.14
49585;BME280;35491;49.142;9.210;2023-01-27T03:08:20;100218.59;;;-0.06;68.31
49585;BME280;35491;49.142;9.210;2023-01-27T03:11:30;100214.94;;;-0.03;68.50
49585;BME280;35491;49.142;9.210;2023-01-27T03:12:50;100224.91;;;-0.10;68.65
49585;BME280;35491;49.142;9.210;2023-01-27T03:35:36;100224.91;;;-0.10;68.99
49585;BME280;35491;49.142;9.210;2023-01-27T03:36:47;100217.81;;;-0.08;68.79
49585;BME280;35491;49.142;9.210;2023-01-27T03:38:05;100229.03;;;-0.04;68.83
49585;BME280;35491;49.142;9.210;2023-01-27T03:39:22;100225.59;;;-0.06;68.56
49585;BME280;35491;49.142;9.210;2023-01-27T03:40:38;100226.59;;;-0.09;68.76
49585;BME280;35491;49.142;9.210;2023-01-27T03:41:54;100230.84;;;-0.06;68.94
49585;BME280;35491;49.142;9.210;2023-01-27T03:43:10;100230.72;;;-0.03;68.45
49585;BME280;35491;49.142;9.210;2023-01-27T03:44:26;100228.88;;;-0.01;68.35
49585;BME280;35491;49.142;9.210;2023-01-27T03:45:43;100223.25;;;0.07;68.39
49585;BME280;35491;49.142;9.210;2023-01-27T05:46:45;100275.78;;;0.08;69.30
49585;BME280;35491;49.142;9.210;2023-01-27T05:47:49;100277.69;;;0.05;69.24
49585;BME280;35491;49.142;9.210;2023-01-27T12:05:08;100391.44;;;0.85;66.41
49585;BME280;35491;49.142;9.210;2023-01-27T12:06:14;100387.94;;;0.84;66.36
49585;BME280;35491;49.142;9.210;2023-01-27T12:08:54;100391.97;;;0.91;66.28
49585;BME280;35491;49.142;9.210;2023-01-27T12:09:58;100390.56;;;0.84;66.26
49585;BME280;35491;49.142;9.210;2023-01-27T12:14:19;100383.53;;;0.85;66.63
49585;BME280;35491;49.142;9.210;2023-01-27T12:15:26;100391.44;;;0.85;66.54
49585;BME280;35491;49.142;9.210;2023-01-27T12:17:33;100386.78;;;0.90;66.20
49585;BME280;35491;49.142;9.210;2023-01-27T12:18:44;100384.72;;;0.97;66.23
49585;BME280;35491;49.142;9.210;2023-01-27T12:19:47;100384.84;;;0.93;66.05
49585;BME280;35491;49.142;9.210;2023-01-27T12:22:32;100382.31;;;0.92;66.41
49585;BME280;35491;49.142;9.210;2023-01-27T12:23:38;100383.84;;;0.96;66.33
49585;BME280;35491;49.142;9.210;2023-01-27T12:24:45;100381.84;;;1.01;66.05
49585;BME280;35491;49.142;9.210;2023-01-27T12:25:51;100382.91;;;0.97;66.00
49585;BME280;35491;49.142;9.210;2023-01-27T12:26:53;100383.56;;;1.02;66.08
49585;BME280;35491;49.142;9.210;2023-01-27T12:27:58;100386.19;;;1.02;66.14
49585;BME280;35491;49.142;9.210;2023-01-27T12:29:04;100381.06;;;0.99;65.75
49585;BME280;35491;49.142;9.210;2023-01-27T12:30:11;100392.84;;;0.92;65.86
49585;BME280;35491;49.142;9.210;2023-01-27T12:31:21;100388.56;;;0.89;66.14
49585;BME280;35491;49.142;9.210;2023-01-27T12:32:31;100382.00;;;0.98;65.85
49585;BME280;35491;49.142;9.210;2023-01-27T12:33:34;100390.38;;;1.06;65.77
49585;BME280;35491;49.142;9.210;2023-01-27T12:34:39;100388.66;;;1.05;65.66
49585;BME280;35491;49.142;9.210;2023-01-27T12:35:49;100379.50;;;0.95;65.95
49585;BME280;35491;49.142;9.210;2023-01-27T12:36:51;100384.16;;;0.90;65.91
49585;BME280;35491;49.142;9.210;2023-01-27T12:38:00;100379.25;;;0.82;66.18
49585;BME280;35491;49.142;9.210;2023-01-27T12:39:08;100382.88;;;0.80;66.35
49585;BME280;35491;49.142;9.210;2023-01-27T12:40:24;100380.91;;;0.85;66.31
49585;BME280;35491;49.142;9.210;2023-01-27T12:41:30;100388.72;;;0.86;66.23
49585;BME280;35491;49.142;9.210;2023-01-27T12:48:43;100375.66;;;1.02;66.07
49585;BME280;35491;49.142;9.210;2023-01-27T12:49:47;100378.06;;;1.07;65.75
49585;BME280;35491;49.142;9.210;2023-01-27T12:51:02;100371.94;;;1.06;65.61
49585;BME280;35491;49.142;9.210;2023-01-27T12:52:14;100369.16;;;1.09;65.33
49585;BME280;35491;49.142;9.210;2023-01-27T13:01:17;100386.47;;;0.96;65.75
49585;BME280;35491;49.142;9.210;2023-01-27T13:02:24;100380.13;;;1.00;65.78
49585;BME280;35491;49.142;9.210;2023-01-27T13:06:53;100385.59;;;1.32;65.41
49585;BME280;35491;49.142;9.210;2023-01-27T13:10:03;100382.78;;;1.18;65.54
49585;BME280;35491;49.142;9.210;2023-01-27T13:11:08;100382.72;;;1.19;65.70
49585;BME280;35491;49.142;9.210;2023-01-27T13:16:56;100386.44;;;1.33;65.02
49585;BME280;35491;49.142;9.210;2023-01-27T13:19:47;100391.25;;;1.42;65.25
49585;BME280;35491;49.142;9.210;2023-01-27T13:21:06;100379.69;;;1.45;64.86
49585;BME280;35491;49.142;9.210;2023-01-27T13:24:02;100393.19;;;1.56;64.65
49585;BME280;35491;49.142;9.210;2023-01-27T13:25:08;100392.00;;;1.62;64.59
49585;BME280;35491;49.142;9.210;2023-01-27T13:26:15;100389.63;;;1.57;64.38
49585;BME280;35491;49.142;9.210;2023-01-27T13:29:08;100389.84;;;1.52;64.58
49585;BME280;35491;49.142;9.210;2023-01-27T13:30:18;100391.34;;;1.40;64.51
49585;BME280;35491;49.142;9.210;2023-01-27T13:31:28;100396.91;;;1.34;64.93
49585;BME280;35491;49.142;9.210;2023-01-27T13:32:38;100383.03;;;1.31;64.86
49585;BME280;35491;49.142;9.210;2023-01-27T13:33:49;100386.28;;;1.36;65.10
49585;BME280;35491;49.142;9.210;2023-01-27T13:45:42;100380.09;;;1.54;64.52
49585;BME280;35491;49.142;9.210;2023-01-27T13:47:00;100384.59;;;1.52;64.44
49585;BME280;35491;49.142;9.210;2023-01-27T14:16:21;100396.13;;;1.67;64.22
49585;BME280;35491;49.142;9.210;2023-01-27T14:19:03;100383.84;;;1.84;63.98
49585;BME280;35491;49.142;9.210;2023-01-27T14:24:01;100391.41;;;1.90;63.58
49585;BME280;35491;49.142;9.210;2023-01-27T14:25:16;100389.25;;;1.98;63.61
49585;BME280;35491;49.142;9.210;2023-01-27T14:27:49;100390.34;;;1.94;63.21
49585;BME280;35491;49.142;9.210;2023-01-27T14:29:55;100396.69;;;1.90;63.18
49585;BME280;35491;49.142;9.210;2023-01-27T14:32:29;100399.63;;;2.01;63.42
49585;BME280;35491;49.142;9.210;2023-01-27T14:33:42;100401.31;;;2.02;63.34
49585;BME280;35491;49.142;9.210;2023-01-27T14:45:16;100402.44;;;1.81;63.79
